sensor_id;sensor_type;location;lat;lon;timestamp;pressure;altitude;pressure_sealevel;temperature;humidity
64967;BME280;51710;38.732;-121.358;2023-02-19T00:01:26;101228.66;;;16.02;39.71
64967;BME280;51710;38.732;-121.358;2023-02-19T00:04:04;101228.19;;;15.99;39.22
64967;BME280;51710;38.732;-121.358;2023-02-19T00:06:32;101239.28;;;15.96;38.93
64967;BME280;51710;38.732;-121.358;2023-02-19T01:20:39;101294.47;;;14.74;38.84
64967;BME280;51710;38.732;-121.358;2023-02-19T01:23:07;101290.63;;;14.68;39.29
64967;BME280;51710;38.732;-121.358;2023-02-19T01:25:33;101276.06;;;14.63;39.01
64967;BME280;51710;38.732;-121.358;2023-02-19T01:27:59;101274.75;;;14.59;38.79
64967;BME280;51710;38.732;-121.358;2023-02-19T01:30:26;101271.06;;;14.52;38.97
64967;BME280;51710;38.732;-121.358;2023-02-19T01:32:52;101264.53;;;14.46;39.00
64967;BME280;51710;38.732;-121.358;2023-02-19T01:35:18;101255.16;;;14.42;39.05
64967;BME280;51710;38.732;-121.358;2023-02-19T01:37:45;101255.31;;;14.41;38.89
64967;BME280;51710;38.732;-121.358;2023-02-19T01:40:11;101261.03;;;14.38;39.07
64967;BME280;51710;38.732;-121.358;2023-02-19T01:42:42;101247.94;;;14.35;38.97
64967;BME280;51710;38.732;-121.358;2023-02-19T01:47:50;101226.19;;;14.30;38.96
64967;BME280;51710;38.732;-121.358;2023-02-19T01:50:18;101221.84;;;14.29;39.12
64967;BME280;51710;38.732;-121.358;2023-02-19T01:52:45;101212.28;;;14.26;39.00
64967;BME280;51710;38.732;-121.358;2023-02-19T01:55:12;101204.38;;;14.25;39.11
64967;BME280;51710;38.732;-121.358;2023-02-19T01:57:44;101216.47;;;14.21;39.97
64967;BME280;51710;38.732;-121.358;2023-02-19T02:00:14;101222.97;;;14.18;39.79
64967;BME280;51710;38.732;-121.358;2023-02-19T02:02:42;101227.84;;;14.15;39.62
64967;BME280;51710;38.732;-121.358;2023-02-19T02:05:20;101228.19;;;14.12;39.86
64967;BME280;51710;38.732;-121.358;2023-02-19T02:07:49;101226.31;;;14.04;40.04
64967;BME280;51710;38.732;-121.358;2023-02-19T02:10:34;101233.53;;;13.96;40.28
64967;BME280;51710;38.732;-121.358;2023-02-19T02:13:00;101238.22;;;13.86;40.68
64967;BME280;51710;38.732;-121.358;2023-02-19T02:15:43;101223.63;;;13.80;40.82
64967;BME280;51710;38.732;-121.358;2023-02-19T02:24:01;101233.47;;;13.64;40.69
64967;BME280;51710;38.732;-121.358;2023-02-19T02:32:15;101238.25;;;13.28;41.47
64967;BME280;51710;38.732;-121.358;2023-02-19T02:34:57;101241.69;;;13.12;42.12
64967;BME280;51710;38.732;-121.358;2023-02-19T02:37:26;101239.59;;;12.98;42.32
64967;BME280;51710;38.732;-121.358;2023-02-19T02:39:57;101243.53;;;12.86;42.50
64967;BME280;51710;38.732;-121.358;2023-02-19T02:42:24;101241.97;;;12.76;42.96
64967;BME280;51710;38.732;-121.358;2023-02-19T02:44:54;101244.06;;;12.64;43.03
64967;BME280;51710;38.732;-121.358;2023-02-19T02:47:49;101247.31;;;12.50;43.19
64967;BME280;51710;38.732;-121.358;2023-02-19T02:50:33;101259.22;;;12.38;43.06
64967;BME280;51710;38.732;-121.358;2023-02-19T02:53:10;101271.47;;;12.23;43.78
64967;BME280;51710;38.732;-121.358;2023-02-19T02:55:57;101273.31;;;12.05;44.20
64967;BME280;51710;38.732;-121.358;2023-02-19T02:58:26;101286.81;;;11.86;44.18
64967;BME280;51710;38.732;-121.358;2023-02-19T03:00:58;101292.38;;;11.75;44.82
64967;BME280;51710;38.732;-121.358;2023-02-19T03:03:47;101293.97;;;11.68;44.71
64967;BME280;51710;38.732;-121.358;2023-02-19T03:06:16;101298.47;;;11.58;44.89
64967;BME280;51710;38.732;-121.358;2023-02-19T03:08:55;101298.69;;;11.47;45.58
64967;BME280;51710;38.732;-121.358;2023-02-19T03:11:23;101293.41;;;11.37;45.87
64967;BME280;51710;38.732;-121.358;2023-02-19T03:16:58;101284.78;;;11.16;46.38
64967;BME280;51710;38.732;-121.358;2023-02-19T03:19:48;101280.91;;;11.10;46.05
64967;BME280;51710;38.732;-121.358;2023-02-19T03:22:25;101280.91;;;11.10;46.17
64967;BME280;51710;38.732;-121.358;2023-02-19T03:25:03;101277.25;;;11.11;46.70
64967;BME280;51710;38.732;-121.358;2023-02-19T03:27:50;101279.22;;;11.09;46.96
64967;BME280;51710;38.732;-121.358;2023-02-19T03:30:24;101283.16;;;11.05;46.88
64967;BME280;51710;38.732;-121.358;2023-02-19T03:33:16;101294.41;;;10.99;47.28
64967;BME280;51710;38.732;-121.358;2023-02-19T03:35:55;101300.88;;;10.97;47.56
64967;BME280;51710;38.732;-121.358;2023-02-19T03:39:05;101306.66;;;10.92;47.46
64967;BME280;51710;38.732;-121.358;2023-02-19T03:41:57;101309.06;;;10.86;47.71
64967;BME280;51710;38.732;-121.358;2023-02-19T03:44:39;101312.13;;;10.81;48.26
64967;BME280;51710;38.732;-121.358;2023-02-19T03:47:24;101321.69;;;10.74;49.19
64967;BME280;51710;38.732;-121.358;2023-02-19T03:50:51;101321.56;;;10.66;49.66
64967;BME280;51710;38.732;-121.358;2023-02-19T03:55:38;101324.38;;;10.55;49.38
64967;BME280;51710;38.732;-121.358;2023-02-19T03:58:13;101335.31;;;10.52;49.90
64967;BME280;51710;38.732;-121.358;2023-02-19T04:00:48;101336.59;;;10.48;49.76
64967;BME280;51710;38.732;-121.358;2023-02-19T04:05:51;101349.63;;;10.42;50.11
64967;BME280;51710;38.732;-121.358;2023-02-19T04:08:19;101351.72;;;10.38;50.37
64967;BME280;51710;38.732;-121.358;2023-02-19T04:10:48;101360.16;;;10.34;50.57
64967;BME280;51710;38.732;-121.358;2023-02-19T04:13:22;101370.47;;;10.27;51.08
64967;BME280;51710;38.732;-121.358;2023-02-19T04:15:50;101370.50;;;10.17;51.18
64967;BME280;51710;38.732;-121.358;2023-02-19T04:18:21;101368.91;;;10.05;51.14
64967;BME280;51710;38.732;-121.358;2023-02-19T04:20:51;101369.03;;;9.94;51.75
64967;BME280;51710;38.732;-121.358;2023-02-19T04:23:21;101369.31;;;9.91;51.82
64967;BME280;51710;38.732;-121.358;2023-02-19T04:25:51;101385.13;;;9.93;52.27
64967;BME280;51710;38.732;-121.358;2023-02-19T04:28:19;101386.13;;;9.92;52.22
64967;BME280;51710;38.732;-121.358;2023-02-19T04:30:45;101384.69;;;9.88;52.44
64967;BME280;51710;38.732;-121.358;2023-02-19T04:33:11;101388.22;;;9.88;52.74
64967;BME280;51710;38.732;-121.358;2023-02-19T04:35:38;101388.31;;;9.87;53.06
64967;BME280;51710;38.732;-121.358;2023-02-19T04:38:04;101383.00;;;9.87;53.21
64967;BME280;51710;38.732;-121.358;2023-02-19T04:40:30;101383.56;;;9.90;53.27
64967;BME280;51710;38.732;-121.358;2023-02-19T04:42:56;101393.09;;;9.93;53.43
64967;BME280;51710;38.732;-121.358;2023-02-19T04:45:23;101395.91;;;9.91;53.86
64967;BME280;51710;38.732;-121.358;2023-02-19T04:47:49;101394.22;;;9.90;53.87
64967;BME280;51710;38.732;-121.358;2023-02-19T04:50:16;101405.97;;;9.88;53.87
64967;BME280;51710;38.732;-121.358;2023-02-19T04:52:42;101405.13;;;9.78;54.05
64967;BME280;51710;38.732;-121.358;2023-02-19T04:55:08;101400.88;;;9.66;54.59
64967;BME280;51710;38.732;-121.358;2023-02-19T04:57:35;101413.41;;;9.54;54.46
64967;BME280;51710;38.732;-121.358;2023-02-19T05:00:01;101415.56;;;9.40;54.71
64967;BME280;51710;38.732;-121.358;2023-02-19T05:02:28;101417.34;;;9.30;55.17
64967;BME280;51710;38.732;-121.358;2023-02-19T05:04:55;101409.91;;;9.24;54.87
64967;BME280;51710;38.732;-121.358;2023-02-19T05:07:21;101406.09;;;9.17;55.52
64967;BME280;51710;38.732;-121.358;2023-02-19T05:09:47;101408.31;;;9.12;55.77
64967;BME280;51710;38.732;-121.358;2023-02-19T05:12:13;101420.16;;;9.07;55.92
64967;BME280;51710;38.732;-121.358;2023-02-19T05:14:40;101421.53;;;9.02;56.30
64967;BME280;51710;38.732;-121.358;2023-02-19T05:17:06;101418.56;;;8.95;56.42
64967;BME280;51710;38.732;-121.358;2023-02-19T05:19:32;101415.19;;;8.93;56.25
64967;BME280;51710;38.732;-121.358;2023-02-19T05:21:58;101410.00;;;8.92;56.59
64967;BME280;51710;38.732;-121.358;2023-02-19T05:24:25;101412.53;;;8.93;56.89
64967;BME280;51710;38.732;-121.358;2023-02-19T05:26:52;101416.16;;;8.92;56.98
64967;BME280;51710;38.732;-121.358;2023-02-19T05:29:18;101418.34;;;8.87;57.02
64967;BME280;51710;38.732;-121.358;2023-02-19T05:31:44;101405.13;;;8.76;56.88
64967;BME280;51710;38.732;-121.358;2023-02-19T05:34:10;101412.88;;;8.68;57.23
64967;BME280;51710;38.732;-121.358;2023-02-19T05:36:38;101407.84;;;8.65;57.38
64967;BME280;51710;38.732;-121.358;2023-02-19T05:39:04;101420.41;;;8.63;57.60
64967;BME280;51710;38.732;-121.358;2023-02-19T05:41:34;101416.19;;;8.61;57.40
64967;BME280;51710;38.732;-121.358;2023-02-19T05:44:00;101420.34;;;8.54;57.78
64967;BME280;51710;38.732;-121.358;2023-02-19T05:46:28;101420.97;;;8.46;57.63
64967;BME280;51710;38.732;-121.358;2023-02-19T05:48:55;101424.34;;;8.37;57.79
64967;BME280;51710;38.732;-121.358;2023-02-19T05:51:24;101424.16;;;8.29;58.19
64967;BME280;51710;38.732;-121.358;2023-02-19T05:53:50;101415.25;;;8.19;58.41
64967;BME280;51710;38.732;-121.358;2023-02-19T05:56:27;101420.63;;;8.18;58.71
64967;BME280;51710;38.732;-121.358;2023-02-19T05:58:55;101413.53;;;8.18;58.61
64967;BME280;51710;38.732;-121.358;2023-02-19T06:01:24;101418.13;;;8.16;59.06
64967;BME280;51710;38.732;-121.358;2023-02-19T06:03:51;101414.28;;;8.09;58.47
64967;BME280;51710;38.732;-121.358;2023-02-19T06:06:18;101411.16;;;8.04;58.36
64967;BME280;51710;38.732;-121.358;2023-02-19T06:08:45;101415.78;;;7.91;58.87
64967;BME280;51710;38.732;-121.358;2023-02-19T06:11:12;101420.13;;;7.81;59.13
64967;BME280;51710;38.732;-121.358;2023-02-19T06:13:39;101411.09;;;7.72;59.77
64967;BME280;51710;38.732;-121.358;2023-02-19T06:16:06;101411.84;;;7.63;59.73
64967;BME280;51710;38.732;-121.358;2023-02-19T06:18:33;101406.66;;;7.51;59.80
64967;BME280;51710;38.732;-121.358;2023-02-19T06:21:04;101410.16;;;7.40;60.81
64967;BME280;51710;38.732;-121.358;2023-02-19T06:23:31;101420.25;;;7.35;59.95
64967;BME280;51710;38.732;-121.358;2023-02-19T06:28:36;101437.31;;;7.20;59.97
64967;BME280;51710;38.732;-121.358;2023-02-19T06:31:04;101428.16;;;7.13;60.57
64967;BME280;51710;38.732;-121.358;2023-02-19T06:33:31;101438.28;;;7.08;60.62
64967;BME280;51710;38.732;-121.358;2023-02-19T06:36:00;101450.53;;;6.98;60.94
64967;BME280;51710;38.732;-121.358;2023-02-19T06:38:26;101438.78;;;6.78;61.12
64967;BME280;51710;38.732;-121.358;2023-02-19T06:40:53;101446.91;;;6.64;61.98
64967;BME280;51710;38.732;-121.358;2023-02-19T06:43:20;101454.59;;;6.56;63.01
64967;BME280;51710;38.732;-121.358;2023-02-19T06:45:46;101457.47;;;6.53;62.88
64967;BME280;51710;38.732;-121.358;2023-02-19T06:48:12;101460.13;;;6.53;62.21
64967;BME280;51710;38.732;-121.358;2023-02-19T06:50:39;101456.50;;;6.54;62.69
64967;BME280;51710;38.732;-121.358;2023-02-19T06:53:05;101453.84;;;6.54;62.68
64967;BME280;51710;38.732;-121.358;2023-02-19T06:55:31;101449.53;;;6.53;62.76
64967;BME280;51710;38.732;-121.358;2023-02-19T06:57:57;101452.06;;;6.55;62.94
64967;BME280;51710;38.732;-121.358;2023-02-19T07:00:25;101443.28;;;6.54;63.29
64967;BME280;51710;38.732;-121.358;2023-02-19T07:02:51;101440.88;;;6.51;63.32
64967;BME280;51710;38.732;-121.358;2023-02-19T07:05:22;101433.78;;;6.52;63.40
64967;BME280;51710;38.732;-121.358;2023-02-19T07:07:48;101431.97;;;6.52;62.71
64967;BME280;51710;38.732;-121.358;2023-02-19T07:10:15;101438.53;;;6.47;62.83
64967;BME280;51710;38.732;-121.358;2023-02-19T07:12:41;101434.78;;;6.38;63.50
64967;BME280;51710;38.732;-121.358;2023-02-19T07:15:08;101443.91;;;6.34;63.43
64967;BME280;51710;38.732;-121.358;2023-02-19T07:17:34;101452.28;;;6.28;63.27
64967;BME280;51710;38.732;-121.358;2023-02-19T07:20:04;101452.75;;;6.22;63.43
64967;BME280;51710;38.732;-121.358;2023-02-19T07:22:30;101446.84;;;6.19;63.93
64967;BME280;51710;38.732;-121.358;2023-02-19T07:24:56;101450.31;;;6.19;63.85
64967;BME280;51710;38.732;-121.358;2023-02-19T07:27:22;101445.88;;;6.20;63.86
64967;BME280;51710;38.732;-121.358;2023-02-19T07:29:49;101436.03;;;6.22;64.20
64967;BME280;51710;38.732;-121.358;2023-02-19T07:32:15;101427.00;;;6.24;64.02
64967;BME280;51710;38.732;-121.358;2023-02-19T07:34:41;101422.25;;;6.29;64.22
64967;BME280;51710;38.732;-121.358;2023-02-19T07:37:07;101422.03;;;6.32;64.40
64967;BME280;51710;38.732;-121.358;2023-02-19T07:39:34;101428.16;;;6.33;63.95
64967;BME280;51710;38.732;-121.358;2023-02-19T07:42:00;101427.88;;;6.25;63.90
64967;BME280;51710;38.732;-121.358;2023-02-19T07:44:26;101432.75;;;6.18;64.10
64967;BME280;51710;38.732;-121.358;2023-02-19T07:46:52;101426.47;;;6.08;64.48
64967;BME280;51710;38.732;-121.358;2023-02-19T07:49:18;101427.75;;;6.03;64.33
64967;BME280;51710;38.732;-121.358;2023-02-19T07:51:45;101427.75;;;6.03;64.34
64967;BME280;51710;38.732;-121.358;2023-02-19T07:54:11;101438.44;;;6.01;65.18
64967;BME280;51710;38.732;-121.358;2023-02-19T07:56:38;101442.47;;;5.94;65.02
64967;BME280;51710;38.732;-121.358;2023-02-19T07:59:04;101449.34;;;5.84;64.76
64967;BME280;51710;38.732;-121.358;2023-02-19T08:01:30;101457.56;;;5.80;64.70
64967;BME280;51710;38.732;-121.358;2023-02-19T08:04:15;101469.75;;;5.69;64.87
64967;BME280;51710;38.732;-121.358;2023-02-19T08:06:42;101463.50;;;5.58;65.28
64967;BME280;51710;38.732;-121.358;2023-02-19T08:09:09;101467.75;;;5.48;65.39
64967;BME280;51710;38.732;-121.358;2023-02-19T08:11:35;101463.31;;;5.48;65.96
64967;BME280;51710;38.732;-121.358;2023-02-19T08:14:24;101466.72;;;5.50;66.17
64967;BME280;51710;38.732;-121.358;2023-02-19T08:16:51;101460.25;;;5.54;66.83
64967;BME280;51710;38.732;-121.358;2023-02-19T08:19:18;101460.78;;;5.59;66.71
64967;BME280;51710;38.732;-121.358;2023-02-19T08:21:44;101456.56;;;5.57;66.05
64967;BME280;51710;38.732;-121.358;2023-02-19T08:24:11;101456.97;;;5.51;65.93
64967;BME280;51710;38.732;-121.358;2023-02-19T08:26:37;101462.06;;;5.41;66.19
64967;BME280;51710;38.732;-121.358;2023-02-19T08:29:04;101466.94;;;5.35;66.30
64967;BME280;51710;38.732;-121.358;2023-02-19T08:31:31;101463.75;;;5.30;66.62
64967;BME280;51710;38.732;-121.358;2023-02-19T08:33:58;101450.00;;;5.25;66.48
64967;BME280;51710;38.732;-121.358;2023-02-19T08:36:24;101453.63;;;5.24;66.56
64967;BME280;51710;38.732;-121.358;2023-02-19T08:38:51;101458.91;;;5.24;66.77
64967;BME280;51710;38.732;-121.358;2023-02-19T08:41:17;101450.97;;;5.24;66.71
64967;BME280;51710;38.732;-121.358;2023-02-19T08:43:43;101445.16;;;5.19;66.47
64967;BME280;51710;38.732;-121.358;2023-02-19T08:46:10;101444.31;;;5.06;66.79
64967;BME280;51710;38.732;-121.358;2023-02-19T08:48:38;101449.38;;;4.96;66.89
64967;BME280;51710;38.732;-121.358;2023-02-19T08:51:07;101441.97;;;4.89;67.04
64967;BME280;51710;38.732;-121.358;2023-02-19T08:53:36;101433.72;;;4.81;67.23
64967;BME280;51710;38.732;-121.358;2023-02-19T08:56:06;101428.75;;;4.76;67.66
64967;BME280;51710;38.732;-121.358;2023-02-19T08:58:33;101419.91;;;4.77;68.00
64967;BME280;51710;38.732;-121.358;2023-02-19T09:01:00;101413.88;;;4.75;67.99
64967;BME280;51710;38.732;-121.358;2023-02-19T09:03:27;101412.59;;;4.68;68.03
64967;BME280;51710;38.732;-121.358;2023-02-19T09:05:53;101407.72;;;4.62;68.58
64967;BME280;51710;38.732;-121.358;2023-02-19T09:08:19;101397.50;;;4.57;68.28
64967;BME280;51710;38.732;-121.358;2023-02-19T09:10:56;101403.19;;;4.51;68.46
64967;BME280;51710;38.732;-121.358;2023-02-19T09:13:23;101416.56;;;4.48;68.51
64967;BME280;51710;38.732;-121.358;2023-02-19T09:15:49;101426.56;;;4.43;68.37
64967;BME280;51710;38.732;-121.358;2023-02-19T09:18:15;101424.13;;;4.40;68.33
64967;BME280;51710;38.732;-121.358;2023-02-19T09:20:41;101431.28;;;4.38;68.50
64967;BME280;51710;38.732;-121.358;2023-02-19T09:23:08;101431.19;;;4.40;68.58
64967;BME280;51710;38.732;-121.358;2023-02-19T09:25:34;101423.19;;;4.41;68.73
64967;BME280;51710;38.732;-121.358;2023-02-19T09:28:00;101430.25;;;4.41;68.74
64967;BME280;51710;38.732;-121.358;2023-02-19T09:30:27;101429.50;;;4.39;68.87
64967;BME280;51710;38.732;-121.358;2023-02-19T09:32:53;101426.03;;;4.38;68.81
64967;BME280;51710;38.732;-121.358;2023-02-19T09:35:19;101426.03;;;4.38;69.09
64967;BME280;51710;38.732;-121.358;2023-02-19T09:37:45;101426.22;;;4.35;68.91
64967;BME280;51710;38.732;-121.358;2023-02-19T09:40:12;101425.38;;;4.35;68.93
64967;BME280;51710;38.732;-121.358;2023-02-19T09:42:40;101423.06;;;4.30;69.16
64967;BME280;51710;38.732;-121.358;2023-02-19T09:45:18;101424.50;;;4.22;68.81
64967;BME280;51710;38.732;-121.358;2023-02-19T09:47:46;101414.13;;;4.19;69.03
64967;BME280;51710;38.732;-121.358;2023-02-19T09:50:16;101414.13;;;4.19;69.27
64967;BME280;51710;38.732;-121.358;2023-02-19T09:52:56;101416.66;;;4.20;69.62
64967;BME280;51710;38.732;-121.358;2023-02-19T09:57:58;101410.31;;;4.10;69.50
64967;BME280;51710;38.732;-121.358;2023-02-19T10:00:28;101419.00;;;3.98;69.27
64967;BME280;51710;38.732;-121.358;2023-02-19T10:03:04;101413.41;;;3.90;69.92
64967;BME280;51710;38.732;-121.358;2023-02-19T10:05:32;101413.41;;;3.90;70.19
64967;BME280;51710;38.732;-121.358;2023-02-19T10:07:59;101415.72;;;3.95;70.47
64967;BME280;51710;38.732;-121.358;2023-02-19T10:10:33;101416.38;;;3.98;69.91
64967;BME280;51710;38.732;-121.358;2023-02-19T10:13:27;101419.88;;;3.99;69.95
64967;BME280;51710;38.732;-121.358;2023-02-19T10:15:56;101415.34;;;4.01;70.07
64967;BME280;51710;38.732;-121.358;2023-02-19T10:18:25;101416.00;;;4.04;70.24
64967;BME280;51710;38.732;-121.358;2023-02-19T10:20:55;101419.34;;;4.06;70.13
64967;BME280;51710;38.732;-121.358;2023-02-19T10:23:23;101399.97;;;4.07;69.75
64967;BME280;51710;38.732;-121.358;2023-02-19T10:25:58;101398.28;;;4.06;70.36
64967;BME280;51710;38.732;-121.358;2023-02-19T10:28:28;101395.63;;;4.06;70.26
64967;BME280;51710;38.732;-121.358;2023-02-19T10:30:57;101400.91;;;4.06;70.72
64967;BME280;51710;38.732;-121.358;2023-02-19T10:33:25;101393.22;;;4.03;70.60
64967;BME280;51710;38.732;-121.358;2023-02-19T10:35:56;101386.66;;;3.96;70.47
64967;BME280;51710;38.732;-121.358;2023-02-19T10:38:38;101391.69;;;3.87;70.72
64967;BME280;51710;38.732;-121.358;2023-02-19T10:41:14;101393.75;;;3.82;70.74
64967;BME280;51710;38.732;-121.358;2023-02-19T10:43:53;101403.53;;;3.80;70.89
64967;BME280;51710;38.732;-121.358;2023-02-19T10:46:27;101400.25;;;3.76;71.07
64967;BME280;51710;38.732;-121.358;2023-02-19T10:49:05;101398.19;;;3.81;71.07
64967;BME280;51710;38.732;-121.358;2023-02-19T10:51:38;101394.59;;;3.82;71.01
64967;BME280;51710;38.732;-121.358;2023-02-19T10:56:33;101389.22;;;3.84;70.70
64967;BME280;51710;38.732;-121.358;2023-02-19T10:59:27;101389.31;;;3.82;70.79
64967;BME280;51710;38.732;-121.358;2023-02-19T11:04:20;101379.38;;;3.73;71.33
64967;BME280;51710;38.732;-121.358;2023-02-19T11:06:47;101379.38;;;3.73;71.43
64967;BME280;51710;38.732;-121.358;2023-02-19T11:09:31;101376.94;;;3.70;71.02
64967;BME280;51710;38.732;-121.358;2023-02-19T11:12:00;101377.88;;;3.69;70.99
64967;BME280;51710;38.732;-121.358;2023-02-19T11:14:31;101385.03;;;3.67;71.23
64967;BME280;51710;38.732;-121.358;2023-02-19T11:17:00;101381.66;;;3.65;71.43
64967;BME280;51710;38.732;-121.358;2023-02-19T11:22:27;101383.19;;;3.55;71.70
64967;BME280;51710;38.732;-121.358;2023-02-19T11:24:54;101375.31;;;3.41;71.73
64967;BME280;51710;38.732;-121.358;2023-02-19T11:27:23;101374.75;;;3.22;72.06
64967;BME280;51710;38.732;-121.358;2023-02-19T11:29:49;101381.69;;;3.09;72.10
64967;BME280;51710;38.732;-121.358;2023-02-19T11:32:36;101382.09;;;3.03;72.78
64967;BME280;51710;38.732;-121.358;2023-02-19T11:35:23;101376.63;;;3.06;72.96
64967;BME280;51710;38.732;-121.358;2023-02-19T11:37:54;101379.81;;;3.11;73.59
64967;BME280;51710;38.732;-121.358;2023-02-19T11:49:04;101397.22;;;3.27;72.72
64967;BME280;51710;38.732;-121.358;2023-02-19T12:09:05;101384.88;;;3.28;71.92
64967;BME280;51710;38.732;-121.358;2023-02-19T12:11:45;101376.31;;;3.24;72.33
64967;BME280;51710;38.732;-121.358;2023-02-19T12:26:27;101375.66;;;3.21;72.25
64967;BME280;51710;38.732;-121.358;2023-02-19T12:39:42;101356.91;;;3.13;72.75
64967;BME280;51710;38.732;-121.358;2023-02-19T12:44:56;101369.50;;;3.08;71.91
64967;BME280;51710;38.732;-121.358;2023-02-19T12:47:32;101376.59;;;2.92;72.48
64967;BME280;51710;38.732;-121.358;2023-02-19T12:50:25;101382.41;;;2.83;72.41
64967;BME280;51710;38.732;-121.358;2023-02-19T12:53:05;101385.44;;;2.77;72.75
64967;BME280;51710;38.732;-121.358;2023-02-19T12:55:39;101379.03;;;2.67;72.53
64967;BME280;51710;38.732;-121.358;2023-02-19T12:58:12;101377.41;;;2.64;72.55
64967;BME280;51710;38.732;-121.358;2023-02-19T13:00:43;101369.44;;;2.66;72.69
64967;BME280;51710;38.732;-121.358;2023-02-19T13:03:24;101375.47;;;2.68;72.94
64967;BME280;51710;38.732;-121.358;2023-02-19T13:08:53;101374.72;;;2.80;73.34
64967;BME280;51710;38.732;-121.358;2023-02-19T13:11:32;101372.84;;;2.82;72.68
64967;BME280;51710;38.732;-121.358;2023-02-19T13:16:53;101365.84;;;2.96;73.13
64967;BME280;51710;38.732;-121.358;2023-02-19T13:19:22;101370.69;;;3.02;73.01
64967;BME280;51710;38.732;-121.358;2023-02-19T13:21:55;101374.19;;;3.03;73.11
64967;BME280;51710;38.732;-121.358;2023-02-19T13:24:44;101383.38;;;2.96;72.24
64967;BME280;51710;38.732;-121.358;2023-02-19T13:30:09;101395.56;;;2.83;72.83
64967;BME280;51710;38.732;-121.358;2023-02-19T13:32:49;101399.06;;;2.83;72.76
64967;BME280;51710;38.732;-121.358;2023-02-19T13:38:03;101396.31;;;2.85;73.05
64967;BME280;51710;38.732;-121.358;2023-02-19T13:40:32;101397.28;;;2.84;73.01
64967;BME280;51710;38.732;-121.358;2023-02-19T13:43:05;101409.00;;;2.78;72.92
64967;BME280;51710;38.732;-121.358;2023-02-19T13:45:43;101404.94;;;2.73;72.88
64967;BME280;51710;38.732;-121.358;2023-02-19T13:48:27;101396.41;;;2.69;72.83
64967;BME280;51710;38.732;-121.358;2023-02-19T13:59:35;101404.59;;;2.79;73.69
64967;BME280;51710;38.732;-121.358;2023-02-19T14:04:49;101403.25;;;2.72;73.56
64967;BME280;51710;38.732;-121.358;2023-02-19T14:14:50;101404.59;;;2.79;73.77
64967;BME280;51710;38.732;-121.358;2023-02-19T14:17:39;101398.00;;;2.72;73.68
64967;BME280;51710;38.732;-121.358;2023-02-19T14:25:32;101399.06;;;2.54;73.15
64967;BME280;51710;38.732;-121.358;2023-02-19T14:33:31;101413.88;;;2.41;73.75
64967;BME280;51710;38.732;-121.358;2023-02-19T14:36:04;101415.66;;;2.40;73.47
64967;BME280;51710;38.732;-121.358;2023-02-19T14:41:50;101403.53;;;2.38;73.65
64967;BME280;51710;38.732;-121.358;2023-02-19T14:44:23;101413.56;;;2.31;72.95
64967;BME280;51710;38.732;-121.358;2023-02-19T14:47:02;101421.72;;;2.26;73.13
64967;BME280;51710;38.732;-121.358;2023-02-19T14:52:09;101437.53;;;2.25;73.91
64967;BME280;51710;38.732;-121.358;2023-02-19T14:54:42;101438.66;;;2.21;73.19
64967;BME280;51710;38.732;-121.358;2023-02-19T14:57:16;101432.72;;;2.17;73.60
64967;BME280;51710;38.732;-121.358;2023-02-19T15:02:52;101437.91;;;2.19;73.71
64967;BME280;51710;38.732;-121.358;2023-02-19T15:05:29;101440.09;;;2.26;73.94
64967;BME280;51710;38.732;-121.358;2023-02-19T15:08:17;101431.66;;;2.36;73.88
64967;BME280;51710;38.732;-121.358;2023-02-19T15:10:46;101445.03;;;2.47;73.59
64967;BME280;51710;38.732;-121.358;2023-02-19T15:13:18;101461.31;;;2.53;73.44
64967;BME280;51710;38.732;-121.358;2023-02-19T15:15:48;101452.31;;;2.57;73.78
64967;BME280;51710;38.732;-121.358;2023-02-19T15:18:23;101456.38;;;2.63;73.17
64967;BME280;51710;38.732;-121.358;2023-02-19T15:20:57;101471.78;;;2.69;73.23
64967;BME280;51710;38.732;-121.358;2023-02-19T15:23:25;101475.34;;;2.68;73.54
64967;BME280;51710;38.732;-121.358;2023-02-19T15:25:55;101469.09;;;2.70;73.57
64967;BME280;51710;38.732;-121.358;2023-02-19T15:31:14;101465.84;;;2.95;73.98
64967;BME280;51710;38.732;-121.358;2023-02-19T15:33:48;101466.38;;;3.15;74.31
64967;BME280;51710;38.732;-121.358;2023-02-19T15:36:21;101474.56;;;3.39;74.34
64967;BME280;51710;38.732;-121.358;2023-02-19T15:38:55;101477.41;;;3.64;74.32
64967;BME280;51710;38.732;-121.358;2023-02-19T15:41:23;101492.41;;;3.90;74.20
64967;BME280;51710;38.732;-121.358;2023-02-19T15:46:43;101494.44;;;4.13;73.63
64967;BME280;51710;38.732;-121.358;2023-02-19T15:49:19;101488.38;;;4.25;73.00
64967;BME280;51710;38.732;-121.358;2023-02-19T15:51:58;101496.13;;;4.28;73.33
64967;BME280;51710;38.732;-121.358;2023-02-19T15:54:29;101478.53;;;4.41;73.29
64967;BME280;51710;38.732;-121.358;2023-02-19T15:56:59;101473.97;;;4.57;73.33
64967;BME280;51710;38.732;-121.358;2023-02-19T15:59:37;101483.22;;;4.77;72.97
64967;BME280;51710;38.732;-121.358;2023-02-19T16:02:10;101484.44;;;4.98;73.16
64967;BME280;51710;38.732;-121.358;2023-02-19T16:04:39;101494.56;;;5.17;72.62
64967;BME280;51710;38.732;-121.358;2023-02-19T16:07:30;101498.41;;;5.38;72.33
64967;BME280;51710;38.732;-121.358;2023-02-19T16:10:18;101492.69;;;5.56;71.94
64967;BME280;51710;38.732;-121.358;2023-02-19T16:12:57;101492.47;;;5.72;71.75
64967;BME280;51710;38.732;-121.358;2023-02-19T16:15:25;101494.06;;;5.87;71.61
64967;BME280;51710;38.732;-121.358;2023-02-19T16:17:52;101489.47;;;6.02;70.94
64967;BME280;51710;38.732;-121.358;2023-02-19T16:20:31;101497.16;;;6.17;71.13
64967;BME280;51710;38.732;-121.358;2023-02-19T16:23:04;101499.47;;;6.34;70.62